Time;durP1;ratioP1;P1;durP2;ratioP2;P2;SDS_P1;SDS_P2;PMS_P1;PMS_P2;Temp;Humidity;BMP_temperature;BMP_pressure;BME280_temperature;BME280_humidity;BME280_pressure;Samples;Min_cycle;Max_cycle;Signal;HPM_P1;HPM_P2
2022/02/07 00:00:46;;;;;;;3.87;2.80;;;;;;;4.79;98.64;98165.27;1623508;87;25815;-74
2022/02/07 00:05:40;;;;;;;5.03;2.87;;;;;;;4.81;98.63;98169.88;1627561;87;27446;-75
2022/02/07 00:08:09;;;;;;;3.62;2.30;;;;;;;4.84;98.51;98171.27;1630225;87;26476;-74
2022/02/07 00:10:37;;;;;;;2.70;2.25;;;;;;;4.86;98.36;98178.00;1629271;87;26152;-74
2022/02/07 00:13:05;;;;;;;3.85;2.00;;;;;;;4.88;97.99;98184.41;1628353;87;26566;-75
2022/02/07 00:15:32;;;;;;;3.55;2.05;;;;;;;4.90;97.89;98184.51;1630811;87;25771;-75
2022/02/07 00:17:58;;;;;;;4.30;2.10;;;;;;;4.91;97.53;98191.97;1629010;87;27673;-75
2022/02/07 00:20:26;;;;;;;4.17;2.15;;;;;;;4.92;97.38;98196.27;1628405;87;26542;-74
2022/02/07 00:22:52;;;;;;;2.77;1.95;;;;;;;4.92;96.87;98201.56;1630459;87;25842;-74
2022/02/07 00:25:20;;;;;;;3.22;2.35;;;;;;;4.94;96.95;98209.59;1628867;87;25866;-74
2022/02/07 00:27:47;;;;;;;2.05;1.52;;;;;;;4.93;96.99;98219.91;1628296;86;25829;-74
2022/02/07 00:30:17;;;;;;;2.37;1.62;;;;;;;4.93;96.79;98225.72;1630604;87;27500;-74
2022/02/07 00:32:45;;;;;;;2.42;1.40;;;;;;;4.89;96.68;98235.13;1629617;87;26462;-74
2022/02/07 00:35:19;;;;;;;2.70;1.98;;;;;;;4.86;96.94;98240.83;1627706;87;25813;-74
2022/02/07 00:37:45;;;;;;;3.50;2.12;;;;;;;4.82;96.66;98248.40;1628378;87;26023;-74
2022/02/07 00:42:53;;;;;;;1.70;1.52;;;;;;;4.75;96.42;98254.22;1629493;87;27458;-75
2022/02/07 00:45:24;;;;;;;2.37;2.17;;;;;;;4.74;96.49;98263.72;1628789;86;25959;-75
2022/02/07 00:47:38;;;;;;;2.85;1.77;;;;;;;4.74;96.53;98288.41;1625080;87;26211;-74
2022/02/07 00:50:04;;;;;;;2.30;1.85;;;;;;;4.73;96.63;98284.64;1629203;86;25759;-74
2022/02/07 00:52:31;;;;;;;2.05;1.80;;;;;;;4.69;96.73;98273.61;1630563;87;25768;-74
2022/02/07 00:54:57;;;;;;;1.80;1.45;;;;;;;4.66;96.45;98282.78;1624386;87;28337;-74
2022/02/07 00:57:24;;;;;;;2.17;1.70;;;;;;;4.65;96.36;98271.06;1630404;86;25775;-75
2022/02/07 00:59:50;;;;;;;1.37;1.27;;;;;;;4.60;96.38;98286.27;1631294;87;25690;-75
2022/02/07 01:02:16;;;;;;;2.45;1.60;;;;;;;4.62;96.23;98287.38;1629029;87;25724;-74
2022/02/07 01:04:44;;;;;;;1.92;1.25;;;;;;;4.61;96.12;98288.41;1630407;87;25784;-75
2022/02/07 01:07:10;;;;;;;3.05;1.30;;;;;;;4.61;95.92;98301.67;1630028;87;27491;-75
2022/02/07 01:09:49;;;;;;;1.98;1.65;;;;;;;4.60;95.53;98305.33;1627613;87;26473;-74
2022/02/07 01:55:49;;;;;;;0.90;0.88;;;;;;;4.54;92.92;98321.55;1627254;87;25885;-75
2022/02/07 01:58:21;;;;;;;1.47;1.20;;;;;;;4.54;92.98;98325.53;1628069;87;26130;-74
2022/02/07 02:00:48;;;;;;;1.00;1.00;;;;;;;4.53;92.92;98327.06;1617476;87;27488;-74
2022/02/07 02:03:15;;;;;;;1.37;1.00;;;;;;;4.51;92.44;98329.90;1617119;87;25860;-74
2022/02/07 02:05:43;;;;;;;1.62;1.00;;;;;;;4.53;92.63;98328.39;1627541;85;25817;-75
2022/02/07 02:08:20;;;;;;;2.37;1.15;;;;;;;4.52;92.08;98324.91;1632442;85;25829;-75
2022/02/07 02:10:53;;;;;;;1.55;1.00;;;;;;;4.51;92.26;98324.59;1627871;86;25919;-75
2022/02/07 02:13:23;;;;;;;1.70;0.93;;;;;;;4.51;91.64;98323.80;1622228;87;28417;-75
2022/02/07 02:16:13;;;;;;;1.12;0.80;;;;;;;4.50;91.74;98333.58;1607766;87;26048;-74
2022/02/07 02:19:05;;;;;;;1.75;1.65;;;;;;;4.50;91.09;98333.58;1616334;87;25956;-75
2022/02/07 02:21:50;;;;;;;1.30;1.20;;;;;;;4.49;91.37;98347.84;1623371;87;26786;-74
2022/02/07 02:35:14;;;;;;;1.98;1.50;;;;;;;4.50;91.54;98354.79;1623234;87;25852;-75
2022/02/07 02:37:14;;;;;;;3.37;2.05;;;;;;;4.50;91.71;98345.52;1622893;87;25818;-74
2022/02/07 02:47:56;;;;;;;2.15;1.87;;;;;;;4.43;91.79;98363.73;1621824;85;25922;-74
2022/02/07 02:50:34;;;;;;;1.50;1.37;;;;;;;4.39;91.91;98365.16;1622216;86;26062;-74
2022/02/07 02:53:08;;;;;;;1.90;1.70;;;;;;;4.36;91.87;98369.02;1616403;87;28281;-75
2022/02/07 02:55:38;;;;;;;1.65;1.55;;;;;;;4.29;91.92;98373.52;1623347;87;25883;-74
2022/02/07 02:58:09;;;;;;;1.52;1.32;;;;;;;4.25;92.06;98374.94;1625712;86;26544;-74
2022/02/07 03:00:38;;;;;;;2.05;1.35;;;;;;;4.24;92.08;98377.27;1618299;87;26348;-74
2022/02/07 03:03:06;;;;;;;1.72;1.52;;;;;;;4.24;92.05;98374.62;1625766;86;25783;-74
2022/02/07 03:05:32;;;;;;;1.95;1.40;;;;;;;4.26;92.07;98379.70;1621959;87;28707;-74
2022/02/07 03:07:59;;;;;;;2.92;1.80;;;;;;;4.28;92.06;98388.27;1628015;85;25912;-74
2022/02/07 03:10:40;;;;;;;2.65;1.60;;;;;;;4.30;91.96;98383.62;1597186;87;25837;-75
2022/02/07 03:18:21;;;;;;;4.05;2.15;;;;;;;4.27;91.77;98391.45;1610537;87;27484;-75
2022/02/07 03:20:48;;;;;;;3.30;2.10;;;;;;;4.25;91.60;98393.48;1618648;87;26247;-73
2022/02/07 03:23:14;;;;;;;4.95;2.30;;;;;;;4.25;91.55;98403.27;1607928;87;25979;-75
2022/02/07 03:25:41;;;;;;;2.55;2.33;;;;;;;4.24;91.14;98391.02;1629521;87;25878;-75
2022/02/07 03:28:07;;;;;;;3.45;1.80;;;;;;;4.24;91.20;98397.14;1596699;87;25899;-75
2022/02/07 03:30:37;;;;;;;4.00;2.08;;;;;;;4.25;91.03;98403.27;1626158;85;28106;-74
2022/02/07 03:33:04;;;;;;;3.22;1.50;;;;;;;4.24;90.97;98406.91;1609761;87;26602;-74
2022/02/07 03:35:32;;;;;;;3.72;1.82;;;;;;;4.23;90.52;98412.75;1630437;86;25790;-75
2022/02/07 03:37:59;;;;;;;3.08;1.72;;;;;;;4.24;90.58;98420.16;1628364;87;25945;-74
2022/02/07 03:40:31;;;;;;;4.65;2.30;;;;;;;4.20;90.02;98414.45;1628010;87;25817;-74
2022/02/07 03:42:58;;;;;;;3.65;2.15;;;;;;;4.18;90.13;98417.81;1615914;87;27542;-75
2022/02/07 03:45:24;;;;;;;4.00;2.70;;;;;;;4.16;90.10;98423.82;1610581;87;25871;-75
2022/02/07 03:47:53;;;;;;;3.70;2.15;;;;;;;4.19;90.14;98423.94;1629891;87;25847;-74
2022/02/07 03:50:22;;;;;;;7.12;2.30;;;;;;;4.16;89.56;98431.77;1628547;86;26282;-74
2022/02/07 03:52:50;;;;;;;6.08;2.55;;;;;;;4.13;89.79;98430.04;1627894;86;26681;-75
2022/02/07 03:55:18;;;;;;;5.58;2.60;;;;;;;4.13;89.95;98431.36;1630501;87;28394;-75
2022/02/07 03:57:45;;;;;;;8.58;3.75;;;;;;;4.13;89.91;98436.66;1628932;87;25911;-74
2022/02/07 04:00:14;;;;;;;4.67;3.08;;;;;;;4.08;89.88;98434.60;1628368;87;26523;-75
2022/02/07 04:02:48;;;;;;;6.33;2.90;;;;;;;4.06;89.75;98437.95;1613219;87;26290;-74
2022/02/07 04:08:00;;;;;;;4.55;2.60;;;;;;;3.99;90.05;98446.87;1627567;87;26914;-75
2022/02/07 04:10:31;;;;;;;7.87;3.40;;;;;;;4.00;90.19;98452.50;1629555;87;26547;-76
2022/02/07 04:13:00;;;;;;;9.65;4.85;;;;;;;3.97;89.99;98441.78;1613901;87;25787;-77
2022/02/07 04:15:23;;;;;;;10.25;4.67;;;;;;;3.97;89.98;98444.93;1612348;87;25863;-75
2022/02/07 04:17:58;;;;;;;9.15;3.65;;;;;;;3.96;90.14;98443.31;1628538;87;25905;-74
2022/02/07 04:20:18;;;;;;;11.53;4.35;;;;;;;3.97;90.10;98444.93;1616591;87;28463;-75
2022/02/07 04:22:47;;;;;;;12.13;5.12;;;;;;;3.98;90.08;98438.11;1628782;87;25935;-74
2022/02/07 04:25:24;;;;;;;8.38;4.00;;;;;;;4.01;90.16;98439.05;1625031;87;25897;-74
2022/02/07 04:27:52;;;;;;;9.35;4.30;;;;;;;4.02;89.92;98431.39;1627522;86;25796;-75
2022/02/07 04:30:20;;;;;;;6.60;2.83;;;;;;;4.04;89.92;98434.69;1617907;87;26566;-74
2022/02/07 04:32:46;;;;;;;8.43;3.50;;;;;;;4.05;89.83;98436.81;1628489;87;28228;-75
2022/02/07 04:35:14;;;;;;;6.15;3.70;;;;;;;4.03;89.64;98437.02;1622812;87;25974;-75
2022/02/07 04:37:40;;;;;;;6.05;3.85;;;;;;;4.03;89.72;98442.31;1596692;87;25881;-75
2022/02/07 04:40:08;;;;;;;8.05;4.40;;;;;;;4.05;89.71;98438.95;1627043;87;25725;-74
2022/02/07 04:42:36;;;;;;;7.58;3.72;;;;;;;4.07;89.75;98439.58;1626680;87;26019;-75
2022/02/07 04:45:26;;;;;;;8.63;3.67;;;;;;;4.10;89.62;98452.44;1617502;87;27489;-74
2022/02/07 04:47:58;;;;;;;5.05;3.60;;;;;;;4.14;89.72;98458.15;1611950;87;26501;-74
2022/02/07 04:53:17;;;;;;;4.30;2.08;;;;;;;4.23;89.61;98465.74;1626629;87;25483;-75
2022/02/07 05:00:47;;;;;;;5.75;2.77;;;;;;;4.29;89.34;98472.89;1613190;87;25364;-75
2022/02/07 05:03:24;;;;;;;7.83;3.90;;;;;;;4.33;89.40;98473.30;1611774;87;25852;-75
2022/02/07 05:13:52;;;;;;;8.98;4.22;;;;;;;4.38;89.18;98468.23;1610378;87;26579;-75
2022/02/07 05:16:25;;;;;;;5.97;3.55;;;;;;;4.39;89.20;98471.17;1623828;87;25776;-75
2022/02/07 05:18:56;;;;;;;6.97;3.42;;;;;;;4.38;89.08;98475.69;1611103;86;25809;-74
2022/02/07 05:21:39;;;;;;;8.88;4.42;;;;;;;4.36;88.90;98474.25;1602194;87;25993;-75
2022/02/07 05:24:07;;;;;;;5.78;3.62;;;;;;;4.35;89.11;98474.75;1621833;87;27663;-75
2022/02/07 05:26:35;;;;;;;5.90;4.15;;;;;;;4.38;89.15;98479.66;1596957;87;26510;-74
2022/02/07 05:29:12;;;;;;;7.03;3.25;;;;;;;4.37;89.03;98487.28;1608650;87;25833;-75
2022/02/07 05:31:40;;;;;;;4.97;2.77;;;;;;;4.34;89.02;98490.86;1615974;87;25878;-75
2022/02/07 05:34:09;;;;;;;8.30;3.12;;;;;;;4.30;89.12;98494.92;1605905;87;25872;-75
2022/02/07 05:36:45;;;;;;;4.03;2.90;;;;;;;4.27;89.09;98500.10;1551403;87;27486;-74
2022/02/07 05:39:18;;;;;;;5.65;3.22;;;;;;;4.25;89.24;98502.13;1611236;87;26187;-75
2022/02/07 05:42:05;;;;;;;5.78;3.08;;;;;;;4.24;89.56;98509.76;1605892;87;25977;-74
2022/02/07 05:44:46;;;;;;;3.52;2.10;;;;;;;4.20;89.63;98513.00;1618446;87;25793;-74
2022/02/07 05:47:14;;;;;;;8.10;3.70;;;;;;;4.14;89.69;98511.14;1604025;87;25907;-75
2022/02/07 05:49:58;;;;;;;8.70;2.30;;;;;;;4.11;89.96;98514.99;1606785;87;28364;-75
2022/02/07 05:52:26;;;;;;;4.25;2.00;;;;;;;4.07;89.96;98520.38;1610470;87;26191;-74
2022/02/07 05:54:54;;;;;;;3.42;1.70;;;;;;;4.03;89.92;98519.63;1617381;87;26033;-74
2022/02/07 05:57:28;;;;;;;4.62;1.98;;;;;;;3.96;89.69;98532.05;1618350;87;26545;-74
2022/02/07 05:59:59;;;;;;;4.28;1.90;;;;;;;3.88;89.65;98540.45;1614591;87;26116;-75
2022/02/07 06:02:45;;;;;;;3.98;2.30;;;;;;;3.78;89.67;98545.77;1606508;87;27555;-74
2022/02/07 06:05:21;;;;;;;3.33;2.33;;;;;;;3.65;89.45;98557.59;1614204;87;26553;-75
2022/02/07 06:07:48;;;;;;;4.55;2.58;;;;;;;3.46;89.17;98565.70;1618072;87;25837;-74
2022/02/07 06:10:14;;;;;;;5.45;3.33;;;;;;;3.30;89.14;98567.77;1610029;87;26223;-75
2022/02/07 06:12:45;;;;;;;4.58;3.20;;;;;;;3.19;89.04;98578.88;1622749;87;25872;-74
2022/02/07 06:15:10;;;;;;;3.25;2.52;;;;;;;3.06;88.96;98584.34;1613717;88;28190;-75
2022/02/07 06:17:39;;;;;;;4.30;2.42;;;;;;;2.97;89.02;98593.91;1626373;87;25826;-75
2022/02/07 06:20:08;;;;;;;6.20;3.17;;;;;;;2.91;89.19;98587.53;1625333;87;26530;-73
2022/02/07 06:22:35;;;;;;;9.60;4.25;;;;;;;2.87;89.17;98591.55;1608989;87;26717;-74
2022/02/07 06:25:04;;;;;;;7.80;3.83;;;;;;;2.82;89.25;98594.45;1628388;86;25746;-75
2022/02/07 06:27:31;;;;;;;11.03;6.00;;;;;;;2.78;89.42;98594.52;1629622;87;27476;-75
2022/02/07 06:29:59;;;;;;;9.75;4.00;;;;;;;2.76;89.50;98597.84;1631540;87;25942;-74
2022/02/07 06:32:26;;;;;;;10.40;3.65;;;;;;;2.78;89.64;98600.59;1630835;87;25930;-75
2022/02/07 06:34:54;;;;;;;9.90;3.33;;;;;;;2.78;89.62;98608.53;1629658;87;26543;-75
2022/02/07 06:37:20;;;;;;;7.30;2.72;;;;;;;2.80;89.71;98607.05;1628825;87;25869;-74
2022/02/07 06:39:47;;;;;;;5.47;3.37;;;;;;;2.76;89.55;98606.58;1628495;87;27449;-74
2022/02/07 06:42:15;;;;;;;8.05;4.10;;;;;;;2.74;89.55;98617.84;1603830;87;26263;-74
2022/02/07 06:44:42;;;;;;;6.37;4.42;;;;;;;2.70;89.52;98620.53;1629378;87;25329;-74
2022/02/07 06:47:09;;;;;;;6.67;4.85;;;;;;;2.67;89.59;98629.34;1629315;87;26533;-74
2022/02/07 06:49:35;;;;;;;3.75;3.10;;;;;;;2.68;89.81;98627.01;1627549;87;26151;-74
2022/02/07 06:52:03;;;;;;;4.92;3.30;;;;;;;2.70;89.93;98632.44;1633105;87;28254;-74
2022/02/07 06:54:30;;;;;;;4.22;2.08;;;;;;;2.68;89.67;98634.44;1598873;87;26228;-75
2022/02/07 06:56:58;;;;;;;3.02;1.95;;;;;;;2.63;89.70;98645.27;1629980;87;26566;-74
2022/02/07 06:59:25;;;;;;;4.55;2.90;;;;;;;2.61;89.86;98642.78;1602268;87;25936;-74
2022/02/07 07:01:53;;;;;;;3.87;2.70;;;;;;;2.60;89.87;98648.26;1625447;87;25953;-74
2022/02/07 07:04:22;;;;;;;4.20;2.75;;;;;;;2.59;89.93;98655.88;1624131;87;27544;-74
2022/02/07 07:06:49;;;;;;;4.58;2.60;;;;;;;2.58;90.08;98654.23;1606531;86;26601;-75
2022/02/07 07:09:15;;;;;;;3.12;2.17;;;;;;;2.59;90.08;98662.49;1625253;86;25767;-75
2022/02/07 07:11:43;;;;;;;4.37;2.35;;;;;;;2.59;90.06;98667.78;1614616;87;25875;-74
2022/02/07 07:14:18;;;;;;;;;;;;;;;2.56;89.98;98679.53;1633802;86;25812;-74
2022/02/07 07:16:50;;;;;;;3.05;1.80;;;;;;;2.56;90.17;98686.14;1625883;87;27488;-74
2022/02/07 07:19:19;;;;;;;2.12;1.60;;;;;;;2.52;90.31;98698.08;1619976;87;25894;-74
2022/02/07 07:21:47;;;;;;;13.38;6.95;;;;;;;2.51;90.39;98705.67;1623934;87;25813;-74
2022/02/07 07:24:16;;;;;;;3.98;2.50;;;;;;;2.49;90.32;98706.36;1598287;87;26655;-74
2022/02/07 07:26:43;;;;;;;2.90;1.92;;;;;;;2.47;90.43;98704.39;1575367;89;26047;-74
2022/02/07 07:29:17;;;;;;;10.88;4.25;;;;;;;2.51;90.43;98706.99;1594333;88;28310;-75
2022/02/07 07:31:51;;;;;;;2.47;1.87;;;;;;;2.53;90.52;98711.59;1599392;88;26533;-74
2022/02/07 07:34:16;;;;;;;3.45;2.12;;;;;;;2.55;90.44;98721.48;1607289;88;25922;-74
2022/02/07 07:36:45;;;;;;;3.62;2.08;;;;;;;2.56;90.42;98724.45;1624037;87;26142;-74
2022/02/07 07:39:15;;;;;;;2.35;1.85;;;;;;;2.52;90.36;98736.89;1624318;87;25801;-75
2022/02/07 07:41:44;;;;;;;4.47;2.60;;;;;;;2.48;90.39;98735.09;1605519;88;27499;-74
2022/02/07 07:44:18;;;;;;;4.67;3.47;;;;;;;2.45;90.42;98744.72;1617521;87;25856;-76
2022/02/07 07:47:05;;;;;;;5.55;3.98;;;;;;;2.44;90.65;98757.59;1550202;88;25444;-75
2022/02/07 07:49:32;;;;;;;5.33;4.17;;;;;;;2.43;90.71;98757.28;1624729;87;26670;-75
2022/02/07 07:52:05;;;;;;;4.35;3.17;;;;;;;2.47;90.81;98770.95;1626471;87;26099;-75
2022/02/07 07:54:46;;;;;;;5.63;4.20;;;;;;;2.43;90.70;98774.46;1605361;88;27494;-75
2022/02/07 08:02:30;;;;;;;5.83;4.55;;;;;;;2.30;91.04;98795.38;1628833;87;26454;-74
2022/02/07 08:04:58;;;;;;;6.40;4.20;;;;;;;2.31;91.19;98802.30;1615666;87;25775;-74
2022/02/07 08:07:37;;;;;;;10.15;6.20;;;;;;;2.33;91.37;98802.97;1608311;88;28597;-75
2022/02/07 08:12:47;;;;;;;9.75;5.45;;;;;;;2.29;91.38;98810.89;1593409;88;26679;-74
2022/02/07 08:15:14;;;;;;;15.25;8.70;;;;;;;2.27;91.43;98808.44;1612136;88;25890;-74
2022/02/07 08:17:40;;;;;;;13.90;8.98;;;;;;;2.30;91.64;98826.59;1586573;89;26483;-75
2022/02/07 08:20:07;;;;;;;31.87;20.97;;;;;;;2.31;91.61;98827.39;1593555;89;27509;-74
2022/02/07 08:22:33;;;;;;;33.55;24.77;;;;;;;2.35;91.65;98837.95;1609910;88;25809;-74
2022/02/07 08:25:02;;;;;;;28.32;21.87;;;;;;;2.32;91.59;98839.12;1601595;89;26438;-74
2022/02/07 08:27:31;;;;;;;15.18;12.13;;;;;;;2.32;91.70;98844.90;1609461;87;26556;-74
2022/02/07 08:29:58;;;;;;;11.78;7.83;;;;;;;2.31;91.83;98849.35;1605478;87;25872;-74
2022/02/07 08:32:25;;;;;;;10.65;6.97;;;;;;;2.32;91.86;98850.19;1623736;86;28150;-74
2022/02/07 08:34:53;;;;;;;7.55;5.55;;;;;;;2.32;91.83;98852.33;1597114;89;25879;-74
2022/02/07 08:37:20;;;;;;;7.97;5.17;;;;;;;2.37;91.96;98857.58;1610170;87;26313;-74
2022/02/07 08:39:46;;;;;;;11.33;7.65;;;;;;;2.39;92.05;98860.87;1624590;87;26485;-79
2022/02/07 08:42:12;;;;;;;5.85;4.62;;;;;;;2.43;92.08;98863.47;1631839;87;26408;-76
2022/02/07 08:44:39;;;;;;;10.25;5.70;;;;;;;2.45;91.94;98874.69;1626493;86;27536;-76
2022/02/07 08:47:05;;;;;;;10.13;7.03;;;;;;;2.46;91.95;98873.70;1623178;87;26293;-75
2022/02/07 08:49:31;;;;;;;18.15;11.10;;;;;;;2.47;91.90;98876.16;1610581;88;25508;-75
2022/02/07 08:51:57;;;;;;;27.00;15.53;;;;;;;2.47;91.88;98885.41;1610086;88;26489;-75
2022/02/07 08:54:27;;;;;;;36.68;18.67;;;;;;;2.48;91.90;98891.52;1627853;87;25929;-75
2022/02/07 08:57:02;;;;;;;17.65;11.80;;;;;;;2.47;91.95;98898.62;1630169;87;27285;-75
2022/02/07 08:59:26;;;;;;;9.60;6.65;;;;;;;2.49;92.12;98905.04;1620392;87;25503;-74
2022/02/07 09:02:17;;;;;;;15.15;13.00;;;;;;;2.49;92.07;98910.33;1624676;86;25838;-74
2022/02/07 09:04:55;;;;;;;7.10;5.58;;;;;;;2.52;92.23;98916.09;1594411;88;25808;-76
2022/02/07 09:07:24;;;;;;;12.03;9.03;;;;;;;2.49;92.19;98921.72;1613890;87;26450;-74
2022/02/07 09:09:44;;;;;;;8.53;5.95;;;;;;;2.51;92.15;98921.54;1627118;87;28420;-74
2022/02/07 09:12:13;;;;;;;10.40;6.83;;;;;;;2.51;92.25;98926.83;1616960;87;25846;-75
2022/02/07 09:14:50;;;;;;;10.98;7.28;;;;;;;2.49;92.12;98928.83;1624237;87;25342;-75
2022/02/07 09:17:11;;;;;;;12.20;8.13;;;;;;;2.51;92.37;98928.14;1627034;86;26985;-75
2022/02/07 09:19:38;;;;;;;58.80;29.05;;;;;;;2.47;92.22;98939.58;1630178;87;25869;-74
2022/02/07 09:22:05;;;;;;;15.80;10.60;;;;;;;2.49;92.36;98944.19;1609907;87;27616;-75
2022/02/07 09:24:32;;;;;;;15.43;9.80;;;;;;;2.50;92.39;98954.27;1616404;87;25844;-76
2022/02/07 09:26:58;;;;;;;11.38;7.25;;;;;;;2.51;92.34;98962.02;1628700;87;26502;-75
2022/02/07 09:29:25;;;;;;;8.95;6.37;;;;;;;2.50;92.36;98974.92;1629118;87;25816;-74
2022/02/07 09:31:51;;;;;;;10.10;7.35;;;;;;;2.51;92.47;98976.55;1625469;87;25837;-75
2022/02/07 09:34:17;;;;;;;6.80;5.78;;;;;;;2.50;92.54;98984.16;1614035;87;27508;-75
2022/02/07 09:36:44;;;;;;;8.63;5.03;;;;;;;2.47;92.46;98984.99;1615887;87;25837;-75
2022/02/07 09:39:10;;;;;;;6.47;4.65;;;;;;;2.48;92.54;98994.58;1605304;83;25821;-75
2022/02/07 09:41:36;;;;;;;7.45;5.25;;;;;;;2.46;92.58;98996.05;1581975;88;26239;-75
2022/02/07 09:44:06;;;;;;;8.48;5.67;;;;;;;2.45;92.61;99001.03;1580701;88;25798;-75
2022/02/07 09:49:07;;;;;;;6.37;4.42;;;;;;;2.38;92.44;99008.48;1612775;86;25783;-75
2022/02/07 09:51:34;;;;;;;6.70;4.65;;;;;;;2.34;92.72;99010.17;1614035;88;25621;-75
2022/02/07 09:54:00;;;;;;;5.35;3.80;;;;;;;2.34;92.68;99014.62;1612385;87;25784;-75
2022/02/07 09:56:26;;;;;;;4.67;3.58;;;;;;;2.33;92.91;99029.65;1592013;89;26539;-78
2022/02/07 09:58:54;;;;;;;4.40;3.60;;;;;;;2.28;92.95;99028.05;1592750;88;27633;-77
2022/02/07 10:01:32;;;;;;;5.20;4.20;;;;;;;2.25;92.91;99038.94;1591295;87;26655;-78
2022/02/07 10:04:07;;;;;;;4.70;4.12;;;;;;;2.20;92.89;99043.91;1604303;87;26616;-78
2022/02/07 10:12:03;;;;;;;3.90;3.33;;;;;;;2.03;93.41;99069.25;1607442;85;27484;-76
2022/02/07 10:14:47;;;;;;;4.12;3.37;;;;;;;1.96;93.51;99073.55;1605775;87;26204;-78
2022/02/07 10:17:38;;;;;;;4.40;3.47;;;;;;;1.96;93.55;99073.06;1609521;87;25930;-76
2022/02/07 10:37:50;;;;;;;3.85;2.25;;;;;;;1.54;95.00;99124.73;1604813;87;25943;-76
2022/02/07 10:39:54;;;;;;;3.65;1.87;;;;;;;1.48;95.18;99133.32;1601282;87;28507;-75
2022/02/07 10:45:04;;;;;;;4.80;2.80;;;;;;;1.41;95.45;99140.75;1601059;88;26448;-75
2022/02/07 10:47:46;;;;;;;3.42;2.65;;;;;;;1.40;95.80;99147.00;1599220;88;25789;-76
2022/02/07 10:50:16;;;;;;;7.37;3.87;;;;;;;1.38;95.78;99152.45;1604232;87;26752;-74
2022/02/07 10:52:57;;;;;;;4.15;2.75;;;;;;;1.36;96.04;99159.70;1604077;88;27571;-74
2022/02/07 10:55:35;;;;;;;3.27;2.90;;;;;;;1.35;96.59;99163.80;1612105;86;25960;-76
2022/02/07 10:58:05;;;;;;;6.22;3.92;;;;;;;1.33;96.68;99173.70;1613210;87;26479;-75
2022/02/07 11:00:53;;;;;;;4.97;3.83;;;;;;;1.34;96.85;99174.04;1616103;87;25799;-74
2022/02/07 11:03:16;;;;;;;4.47;3.87;;;;;;;1.37;96.82;99181.61;1614978;87;25970;-75
2022/02/07 11:05:44;;;;;;;6.15;5.00;;;;;;;1.41;96.89;99194.84;1604973;87;27554;-75
2022/02/07 11:08:33;;;;;;;6.53;4.05;;;;;;;1.42;96.99;99193.34;1603223;87;25825;-75
2022/02/07 11:16:20;;;;;;;8.53;4.35;;;;;;;1.60;96.87;99220.08;1583147;90;25352;-74
2022/02/07 11:21:38;;;;;;;6.92;4.80;;;;;;;1.74;96.85;99224.70;1595031;88;26554;-75
2022/02/07 11:24:27;;;;;;;7.03;4.08;;;;;;;1.81;96.77;99219.11;1597915;88;25853;-76
2022/02/07 11:26:51;;;;;;;7.10;4.87;;;;;;;1.85;96.82;99227.02;1597664;88;26582;-75
2022/02/07 11:29:48;;;;;;;5.62;3.92;;;;;;;1.90;96.67;99237.92;1598137;89;25964;-75
2022/02/07 11:32:47;;;;;;;8.58;5.10;;;;;;;1.91;96.68;99233.79;1583091;89;27553;-76
2022/02/07 11:35:32;;;;;;;6.03;4.40;;;;;;;1.97;96.77;99242.86;1560655;90;25852;-77
2022/02/07 11:38:09;;;;;;;8.40;5.42;;;;;;;2.01;96.68;99246.33;1598547;85;25883;-77
2022/02/07 11:40:43;;;;;;;8.38;5.05;;;;;;;2.05;96.45;99256.08;1649923;84;26452;-76
2022/02/07 11:43:17;;;;;;;7.30;4.37;;;;;;;2.08;96.59;99258.38;1663639;85;25869;-76
2022/02/07 11:46:03;;;;;;;11.22;4.83;;;;;;;2.08;96.48;99267.13;1658189;85;27465;-76
2022/02/07 11:48:43;;;;;;;8.50;4.92;;;;;;;2.13;96.40;99275.39;1666133;85;26046;-76
2022/02/07 11:51:23;;;;;;;12.23;5.55;;;;;;;2.19;96.48;99268.13;1665869;85;25837;-76
2022/02/07 11:54:00;;;;;;;5.90;4.53;;;;;;;2.24;96.17;99282.99;1658710;83;25900;-77
2022/02/07 11:56:44;;;;;;;10.63;4.60;;;;;;;2.29;96.25;99281.98;1659736;85;25815;-76
2022/02/07 12:02:16;;;;;;;8.00;4.70;;;;;;;2.40;96.06;99294.52;1650155;85;25883;-76
2022/02/07 12:04:46;;;;;;;6.60;3.70;;;;;;;2.43;95.95;99301.63;1649848;85;26624;-77
2022/02/07 12:07:25;;;;;;;9.13;4.85;;;;;;;2.45;95.46;99300.97;1644008;85;25759;-76
2022/02/07 12:10:05;;;;;;;6.78;4.65;;;;;;;2.47;95.68;99305.59;1645994;86;26277;-76
2022/02/07 12:12:44;;;;;;;4.35;2.50;;;;;;;2.53;95.49;99309.37;1648884;86;30214;-75
2022/02/07 12:15:35;;;;;;;10.13;3.70;;;;;;;2.56;94.99;99317.81;1648189;86;25917;-76
2022/02/07 12:18:20;;;;;;;8.15;4.28;;;;;;;2.56;94.65;99336.31;1648527;85;26144;-76
2022/02/07 12:20:51;;;;;;;6.60;3.25;;;;;;;2.59;94.92;99346.53;1649707;86;25905;-76
2022/02/07 12:23:31;;;;;;;9.98;4.42;;;;;;;2.64;94.90;99356.61;1646340;86;25566;-75
2022/02/07 12:26:11;;;;;;;9.28;3.30;;;;;;;2.67;94.91;99357.12;1641357;86;28377;-76
2022/02/07 12:28:56;;;;;;;7.37;4.35;;;;;;;2.70;94.67;99359.42;1640312;86;25887;-76
2022/02/07 12:31:20;;;;;;;8.60;3.65;;;;;;;2.71;94.50;99369.02;1641586;84;25928;-76
2022/02/07 12:33:54;;;;;;;7.92;3.62;;;;;;;2.72;94.27;99374.62;1647170;86;26274;-76
2022/02/07 12:36:26;;;;;;;8.75;3.52;;;;;;;2.70;94.24;99384.53;1643721;86;25874;-76
2022/02/07 12:38:54;;;;;;;11.83;4.95;;;;;;;2.70;94.26;99393.79;1623756;85;28352;-76
2022/02/07 12:41:26;;;;;;;9.55;4.50;;;;;;;2.71;94.38;99398.59;1615815;87;25832;-75
2022/02/07 12:43:55;;;;;;;9.38;4.78;;;;;;;2.72;94.48;99408.16;1616744;86;25850;-75
2022/02/07 12:46:26;;;;;;;6.20;3.62;;;;;;;2.72;94.34;99406.83;1620554;88;26050;-75
2022/02/07 12:48:58;;;;;;;10.10;4.53;;;;;;;2.72;94.47;99405.52;1621039;88;25308;-76
2022/02/07 12:51:32;;;;;;;13.45;4.17;;;;;;;2.73;94.29;99406.69;1619220;88;27496;-76
2022/02/07 12:53:58;;;;;;;9.48;4.87;;;;;;;2.71;94.19;99423.70;1621147;88;25820;-76
2022/02/07 12:56:28;;;;;;;8.18;3.45;;;;;;;2.71;94.33;99423.70;1619729;87;25901;-76
2022/02/07 12:58:56;;;;;;;10.85;4.08;;;;;;;2.72;94.30;99423.53;1615472;86;53781;-76
2022/02/07 13:01:30;;;;;;;6.90;4.05;;;;;;;2.73;94.27;99427.01;1615896;88;25785;-75
2022/02/07 13:04:07;;;;;;;8.18;4.08;;;;;;;2.79;94.37;99431.63;1619592;87;27536;-79
2022/02/07 13:06:37;;;;;;;9.53;4.47;;;;;;;2.83;94.30;99441.72;1620641;88;25986;-77
2022/02/07 13:09:17;;;;;;;10.72;3.30;;;;;;;2.88;94.34;99442.55;1618450;86;26575;-78
2022/02/07 13:12:00;;;;;;;9.45;3.20;;;;;;;2.93;94.29;99437.07;1622334;88;26630;-79
2022/02/07 13:14:14;;;;;;;16.62;9.80;;;;;;;2.98;93.94;99442.70;1618985;86;26041;-76
2022/02/07 13:16:40;;;;;;;11.43;4.28;;;;;;;3.03;93.97;99444.36;1619666;87;27488;-75
2022/02/07 13:19:19;;;;;;;7.12;4.05;;;;;;;3.05;93.73;99442.38;1616842;88;25838;-75
2022/02/07 13:21:49;;;;;;;6.87;3.20;;;;;;;3.09;93.67;99448.98;1618849;88;25911;-76
2022/02/07 13:24:20;;;;;;;5.08;2.87;;;;;;;3.13;93.82;99452.11;1622299;88;26243;-76
2022/02/07 13:26:53;;;;;;;7.40;3.02;;;;;;;3.20;93.95;99466.33;1539556;88;25902;-76
2022/02/07 13:29:24;;;;;;;7.55;3.27;;;;;;;3.24;93.67;99475.58;1580818;88;27470;-76
2022/02/07 13:31:59;;;;;;;;;;;;;;;3.28;93.66;99476.06;1579774;88;26016;-76
2022/02/07 13:34:29;;;;;;;5.58;3.20;;;;;;;3.35;93.80;99483.67;1580997;88;25395;-76
2022/02/07 13:37:14;;;;;;;8.60;3.40;;;;;;;3.39;93.75;99495.57;1560819;88;26019;-76
2022/02/07 13:40:12;;;;;;;10.28;3.20;;;;;;;3.43;93.47;99506.98;1555525;88;26594;-78
2022/02/07 13:42:42;;;;;;;9.58;2.77;;;;;;;3.43;92.76;99503.50;1582576;88;27554;-75
2022/02/07 13:45:12;;;;;;;7.80;2.53;;;;;;;3.44;92.55;99506.00;1597613;88;26008;-76
2022/02/07 13:47:45;;;;;;;7.15;2.67;;;;;;;3.45;92.65;99510.78;1595025;88;34954;-77
2022/02/07 13:50:18;;;;;;;7.10;2.37;;;;;;;3.44;92.44;99511.30;1578830;90;26484;-76
2022/02/07 13:52:49;;;;;;;7.08;2.52;;;;;;;3.46;92.15;99518.57;1597570;88;26034;-77
2022/02/07 13:55:28;;;;;;;10.53;4.55;;;;;;;3.46;91.18;99518.57;1601348;85;27450;-77
2022/02/07 13:58:02;;;;;;;3.72;2.20;;;;;;;3.48;91.20;99527.66;1581921;90;25875;-77
2022/02/07 14:00:43;;;;;;;7.08;2.85;;;;;;;3.45;90.94;99539.89;1582656;89;25924;-77
2022/02/07 14:03:32;;;;;;;7.70;3.27;;;;;;;3.43;91.32;99543.20;1582098;90;25876;-77
2022/02/07 14:06:00;;;;;;;11.33;3.90;;;;;;;3.43;91.31;99547.18;1581719;90;25884;-76
2022/02/07 14:08:40;;;;;;;7.53;2.67;;;;;;;3.42;91.27;99550.84;1572177;89;27652;-77
2022/02/07 14:11:13;;;;;;;5.08;2.77;;;;;;;3.42;91.54;99550.84;1602524;87;25924;-77
2022/02/07 14:13:42;;;;;;;6.90;2.70;;;;;;;3.43;91.45;99560.41;1565053;90;25786;-77
2022/02/07 14:16:10;;;;;;;9.13;3.20;;;;;;;3.45;91.09;99565.05;1571460;89;26600;-76
2022/02/07 14:18:38;;;;;;;7.90;2.55;;;;;;;3.45;90.85;99571.66;1565925;89;26014;-76